sensor_id;sensor_type;location;lat;lon;timestamp;pressure;altitude;pressure_sealevel;temperature;humidity
22755;BME280;11544;42.020;23.094;2023-12-20T00:02:15;97777.16;;;1.33;100.00
22755;BME280;11544;42.020;23.094;2023-12-20T00:04:42;97780.94;;;1.72;100.00
22755;BME280;11544;42.020;23.094;2023-12-20T00:07:09;97779.31;;;1.80;100.00
22755;BME280;11544;42.020;23.094;2023-12-20T00:09:36;97780.03;;;1.66;100.00
22755;BME280;11544;42.020;23.094;2023-12-20T00:12:04;97776.84;;;1.03;100.00
22755;BME280;11544;42.020;23.094;2023-12-20T00:14:30;97775.22;;;1.10;100.00
22755;BME280;11544;42.020;23.094;2023-12-20T00:16:57;97775.78;;;0.86;100.00
22755;BME280;11544;42.020;23.094;2023-12-20T00:19:24;97771.06;;;1.24;100.00
22755;BME280;11544;42.020;23.094;2023-12-20T00:21:51;97768.91;;;1.66;100.00
22755;BME280;11544;42.020;23.094;2023-12-20T00:24:18;97760.69;;;1.15;100.00
22755;BME280;11544;42.020;23.094;2023-12-20T00:26:45;97766.16;;;0.67;100.00
22755;BME280;11544;42.020;23.094;2023-12-20T00:29:12;97758.75;;;0.94;100.00
22755;BME280;11544;42.020;23.094;2023-12-20T00:31:38;97760.41;;;0.88;100.00
22755;BME280;11544;42.020;23.094;2023-12-20T00:34:05;97758.13;;;1.14;100.00
22755;BME280;11544;42.020;23.094;2023-12-20T00:36:33;97756.16;;;0.91;100.00
22755;BME280;11544;42.020;23.094;2023-12-20T00:38:59;97752.41;;;1.42;100.00
22755;BME280;11544;42.020;23.094;2023-12-20T00:41:27;97751.53;;;1.39;100.00
22755;BME280;11544;42.020;23.094;2023-12-20T00:43:53;97747.81;;;1.09;100.00
22755;BME280;11544;42.020;23.094;2023-12-20T00:46:20;97750.81;;;0.73;100.00
22755;BME280;11544;42.020;23.094;2023-12-20T00:48:47;97751.25;;;1.11;100.00
22755;BME280;11544;42.020;23.094;2023-12-20T00:51:14;97749.56;;;1.12;100.00
22755;BME280;11544;42.020;23.094;2023-12-20T00:53:41;97744.47;;;1.16;100.00
22755;BME280;11544;42.020;23.094;2023-12-20T00:56:09;97745.09;;;0.97;100.00
22755;BME280;11544;42.020;23.094;2023-12-20T00:58:36;97732.97;;;0.80;100.00
22755;BME280;11544;42.020;23.094;2023-12-20T01:01:03;97742.22;;;0.71;100.00
22755;BME280;11544;42.020;23.094;2023-12-20T01:03:31;97739.88;;;0.89;100.00
22755;BME280;11544;42.020;23.094;2023-12-20T01:05:58;97731.75;;;0.52;100.00
22755;BME280;11544;42.020;23.094;2023-12-20T01:08:24;97734.22;;;0.45;100.00
22755;BME280;11544;42.020;23.094;2023-12-20T01:10:51;97724.88;;;0.48;100.00
22755;BME280;11544;42.020;23.094;2023-12-20T01:13:18;97720.53;;;1.22;100.00
22755;BME280;11544;42.020;23.094;2023-12-20T01:15:45;97719.09;;;0.68;100.00
22755;BME280;11544;42.020;23.094;2023-12-20T01:18:14;97713.16;;;0.70;100.00
22755;BME280;11544;42.020;23.094;2023-12-20T01:20:41;97711.41;;;0.68;100.00
22755;BME280;11544;42.020;23.094;2023-12-20T01:23:08;97712.28;;;0.70;100.00
22755;BME280;11544;42.020;23.094;2023-12-20T01:25:35;97708.38;;;0.29;100.00
22755;BME280;11544;42.020;23.094;2023-12-20T01:28:01;97712.41;;;0.79;100.00
22755;BME280;11544;42.020;23.094;2023-12-20T01:30:29;97712.81;;;0.41;100.00
22755;BME280;11544;42.020;23.094;2023-12-20T01:32:56;97709.31;;;0.36;100.00
22755;BME280;11544;42.020;23.094;2023-12-20T01:35:23;97705.09;;;0.42;100.00
22755;BME280;11544;42.020;23.094;2023-12-20T01:37:50;97698.72;;;0.78;100.00
22755;BME280;11544;42.020;23.094;2023-12-20T01:40:19;97688.34;;;0.69;100.00
22755;BME280;11544;42.020;23.094;2023-12-20T01:42:46;97676.41;;;0.74;100.00
22755;BME280;11544;42.020;23.094;2023-12-20T01:45:13;97683.38;;;0.83;100.00
22755;BME280;11544;42.020;23.094;2023-12-20T01:47:40;97679.16;;;0.91;100.00
22755;BME280;11544;42.020;23.094;2023-12-20T01:50:08;97680.06;;;0.23;100.00
22755;BME280;11544;42.020;23.094;2023-12-20T01:52:35;97674.25;;;0.35;100.00
22755;BME280;11544;42.020;23.094;2023-12-20T01:55:04;97667.47;;;0.40;100.00
22755;BME280;11544;42.020;23.094;2023-12-20T01:57:37;97667.06;;;0.81;100.00
22755;BME280;11544;42.020;23.094;2023-12-20T02:00:05;97653.94;;;0.53;100.00
22755;BME280;11544;42.020;23.094;2023-12-20T02:02:33;97650.16;;;0.22;100.00
22755;BME280;11544;42.020;23.094;2023-12-20T02:05:00;97650.34;;;0.39;100.00
22755;BME280;11544;42.020;23.094;2023-12-20T02:07:30;97647.19;;;0.60;100.00
22755;BME280;11544;42.020;23.094;2023-12-20T02:09:57;97644.19;;;1.02;100.00
22755;BME280;11544;42.020;23.094;2023-12-20T02:12:24;97636.50;;;0.22;100.00
22755;BME280;11544;42.020;23.094;2023-12-20T02:14:51;97632.63;;;0.57;100.00
22755;BME280;11544;42.020;23.094;2023-12-20T02:17:18;97627.56;;;0.65;100.00
22755;BME280;11544;42.020;23.094;2023-12-20T02:19:45;97628.03;;;0.29;100.00
22755;BME280;11544;42.020;23.094;2023-12-20T02:22:12;97623.03;;;0.42;100.00
22755;BME280;11544;42.020;23.094;2023-12-20T02:24:39;97623.25;;;0.62;100.00
22755;BME280;11544;42.020;23.094;2023-12-20T02:27:07;97622.19;;;1.35;100.00
22755;BME280;11544;42.020;23.094;2023-12-20T02:29:35;97624.41;;;0.92;100.00
22755;BME280;11544;42.020;23.094;2023-12-20T02:32:02;97617.06;;;0.44;100.00
22755;BME280;11544;42.020;23.094;2023-12-20T02:34:29;97610.00;;;0.26;100.00
22755;BME280;11544;42.020;23.094;2023-12-20T02:36:56;97606.22;;;0.69;100.00
22755;BME280;11544;42.020;23.094;2023-12-20T02:39:23;97605.69;;;1.05;100.00
22755;BME280;11544;42.020;23.094;2023-12-20T02:41:50;97601.84;;;0.60;100.00
22755;BME280;11544;42.020;23.094;2023-12-20T02:44:17;97595.78;;;0.52;100.00
22755;BME280;11544;42.020;23.094;2023-12-20T02:46:44;97606.69;;;0.34;100.00
22755;BME280;11544;42.020;23.094;2023-12-20T02:49:11;97610.41;;;-0.14;100.00
22755;BME280;11544;42.020;23.094;2023-12-20T02:51:38;97601.72;;;0.48;100.00
22755;BME280;11544;42.020;23.094;2023-12-20T02:54:05;97587.91;;;0.34;100.00
22755;BME280;11544;42.020;23.094;2023-12-20T02:56:33;97587.09;;;0.38;100.00
22755;BME280;11544;42.020;23.094;2023-12-20T02:59:00;97586.19;;;0.34;100.00
22755;BME280;11544;42.020;23.094;2023-12-20T03:01:28;97584.44;;;0.29;100.00
22755;BME280;11544;42.020;23.094;2023-12-20T03:03:56;97587.66;;;0.14;100.00
22755;BME280;11544;42.020;23.094;2023-12-20T03:06:23;97587.31;;;0.59;100.00
22755;BME280;11544;42.020;23.094;2023-12-20T03:08:50;97588.22;;;0.66;100.00
22755;BME280;11544;42.020;23.094;2023-12-20T03:11:17;97579.66;;;0.64;100.00
22755;BME280;11544;42.020;23.094;2023-12-20T03:13:44;97578.88;;;0.71;100.00
22755;BME280;11544;42.020;23.094;2023-12-20T03:16:12;97578.56;;;0.42;100.00
22755;BME280;11544;42.020;23.094;2023-12-20T03:18:39;97572.75;;;0.58;100.00
22755;BME280;11544;42.020;23.094;2023-12-20T03:21:06;97571.13;;;0.68;100.00
22755;BME280;11544;42.020;23.094;2023-12-20T03:23:33;97567.66;;;0.61;100.00
22755;BME280;11544;42.020;23.094;2023-12-20T03:26:00;97568.56;;;0.67;100.00
22755;BME280;11544;42.020;23.094;2023-12-20T03:28:27;97569.44;;;0.70;100.00
22755;BME280;11544;42.020;23.094;2023-12-20T03:30:55;97571.88;;;0.55;100.00
22755;BME280;11544;42.020;23.094;2023-12-20T03:33:21;97566.94;;;0.78;100.00
22755;BME280;11544;42.020;23.094;2023-12-20T03:35:48;97566.25;;;0.97;100.00
22755;BME280;11544;42.020;23.094;2023-12-20T03:38:15;97558.69;;;1.11;100.00
22755;BME280;11544;42.020;23.094;2023-12-20T03:40:42;97575.28;;;0.55;100.00
22755;BME280;11544;42.020;23.094;2023-12-20T03:43:09;97573.56;;;0.54;100.00
22755;BME280;11544;42.020;23.094;2023-12-20T03:45:36;97568.69;;;0.80;100.00
22755;BME280;11544;42.020;23.094;2023-12-20T03:48:03;97567.13;;;0.99;100.00
22755;BME280;11544;42.020;23.094;2023-12-20T03:50:30;97571.00;;;0.54;100.00
22755;BME280;11544;42.020;23.094;2023-12-20T03:52:57;97569.16;;;0.42;100.00
22755;BME280;11544;42.020;23.094;2023-12-20T03:55:24;97568.06;;;0.17;100.00
22755;BME280;11544;42.020;23.094;2023-12-20T03:57:51;97561.25;;;0.19;100.00
22755;BME280;11544;42.020;23.094;2023-12-20T04:00:18;97569.50;;;-0.06;100.00
22755;BME280;11544;42.020;23.094;2023-12-20T04:02:45;97557.00;;;0.22;100.00
22755;BME280;11544;42.020;23.094;2023-12-20T04:05:12;97553.72;;;0.36;100.00
22755;BME280;11544;42.020;23.094;2023-12-20T04:07:39;97551.09;;;0.29;100.00
22755;BME280;11544;42.020;23.094;2023-12-20T04:10:06;97556.94;;;0.17;100.00
22755;BME280;11544;42.020;23.094;2023-12-20T04:12:35;97548.28;;;0.07;100.00
22755;BME280;11544;42.020;23.094;2023-12-20T04:15:01;97550.91;;;0.13;100.00
22755;BME280;11544;42.020;23.094;2023-12-20T04:17:35;97540.75;;;0.23;100.00
22755;BME280;11544;42.020;23.094;2023-12-20T04:20:03;97540.69;;;0.15;100.00
22755;BME280;11544;42.020;23.094;2023-12-20T04:22:31;97542.38;;;0.13;100.00
22755;BME280;11544;42.020;23.094;2023-12-20T04:24:58;97535.81;;;0.38;100.00
22755;BME280;11544;42.020;23.094;2023-12-20T04:27:24;97534.75;;;0.20;100.00
22755;BME280;11544;42.020;23.094;2023-12-20T04:29:51;97533.84;;;0.15;100.00
22755;BME280;11544;42.020;23.094;2023-12-20T04:32:18;97533.19;;;0.33;100.00
22755;BME280;11544;42.020;23.094;2023-12-20T04:34:45;97528.97;;;0.41;100.00
22755;BME280;11544;42.020;23.094;2023-12-20T04:37:12;97527.88;;;0.18;100.00
22755;BME280;11544;42.020;23.094;2023-12-20T04:39:39;97528.59;;;0.05;100.00
22755;BME280;11544;42.020;23.094;2023-12-20T04:42:08;97522.72;;;0.16;100.00
22755;BME280;11544;42.020;23.094;2023-12-20T04:44:34;97517.66;;;0.19;100.00
22755;BME280;11544;42.020;23.094;2023-12-20T04:47:02;97520.94;;;0.08;100.00
22755;BME280;11544;42.020;23.094;2023-12-20T04:49:29;97513.53;;;0.37;100.00
22755;BME280;11544;42.020;23.094;2023-12-20T04:51:56;97515.94;;;0.20;100.00
22755;BME280;11544;42.020;23.094;2023-12-20T04:54:23;97516.09;;;0.34;100.00
22755;BME280;11544;42.020;23.094;2023-12-20T04:56:50;97505.50;;;0.05;100.00
22755;BME280;11544;42.020;23.094;2023-12-20T04:59:17;97502.06;;;0.01;100.00
22755;BME280;11544;42.020;23.094;2023-12-20T05:01:44;97499.25;;;2.52;100.00
22755;BME280;11544;42.020;23.094;2023-12-20T05:04:11;97496.09;;;5.52;100.00
22755;BME280;11544;42.020;23.094;2023-12-20T05:06:38;97494.47;;;5.40;100.00
22755;BME280;11544;42.020;23.094;2023-12-20T05:09:06;97500.59;;;1.30;100.00
22755;BME280;11544;42.020;23.094;2023-12-20T05:11:33;97495.00;;;0.64;100.00
22755;BME280;11544;42.020;23.094;2023-12-20T05:14:00;97499.19;;;0.59;100.00
22755;BME280;11544;42.020;23.094;2023-12-20T05:16:26;97503.94;;;0.14;100.00
22755;BME280;11544;42.020;23.094;2023-12-20T05:18:54;97500.88;;;0.54;100.00
22755;BME280;11544;42.020;23.094;2023-12-20T05:21:21;97504.91;;;0.27;100.00
22755;BME280;11544;42.020;23.094;2023-12-20T05:23:48;97489.06;;;0.73;100.00
22755;BME280;11544;42.020;23.094;2023-12-20T05:26:14;97502.59;;;0.55;100.00
22755;BME280;11544;42.020;23.094;2023-12-20T05:28:41;97497.34;;;0.42;100.00
22755;BME280;11544;42.020;23.094;2023-12-20T05:31:08;97481.78;;;0.23;100.00
22755;BME280;11544;42.020;23.094;2023-12-20T05:33:35;97481.28;;;0.63;100.00
22755;BME280;11544;42.020;23.094;2023-12-20T05:36:03;97480.72;;;1.00;100.00
22755;BME280;11544;42.020;23.094;2023-12-20T05:38:30;97488.75;;;0.37;100.00
22755;BME280;11544;42.020;23.094;2023-12-20T05:40:57;97486.44;;;0.65;100.00
22755;BME280;11544;42.020;23.094;2023-12-20T05:43:24;97485.28;;;0.31;100.00
22755;BME280;11544;42.020;23.094;2023-12-20T05:45:53;97481.06;;;0.36;100.00
22755;BME280;11544;42.020;23.094;2023-12-20T05:48:20;97474.91;;;0.18;100.00
22755;BME280;11544;42.020;23.094;2023-12-20T05:50:47;97474.63;;;-0.09;100.00
22755;BME280;11544;42.020;23.094;2023-12-20T05:53:16;97473.22;;;0.20;100.00
22755;BME280;11544;42.020;23.094;2023-12-20T05:55:43;97469.81;;;0.22;100.00
22755;BME280;11544;42.020;23.094;2023-12-20T05:58:09;97473.47;;;0.51;100.00
22755;BME280;11544;42.020;23.094;2023-12-20T06:00:36;97468.28;;;0.40;100.00
22755;BME280;11544;42.020;23.094;2023-12-20T06:03:04;97469.94;;;0.34;100.00
22755;BME280;11544;42.020;23.094;2023-12-20T06:05:31;97463.56;;;0.99;100.00
22755;BME280;11544;42.020;23.094;2023-12-20T06:07:58;97471.00;;;0.63;100.00
22755;BME280;11544;42.020;23.094;2023-12-20T06:10:28;97467.72;;;0.78;100.00
22755;BME280;11544;42.020;23.094;2023-12-20T06:12:55;97465.75;;;0.47;100.00
22755;BME280;11544;42.020;23.094;2023-12-20T06:15:23;97466.66;;;0.52;100.00
22755;BME280;11544;42.020;23.094;2023-12-20T06:17:50;97473.00;;;1.00;100.00
22755;BME280;11544;42.020;23.094;2023-12-20T06:20:17;97465.56;;;1.47;100.00
22755;BME280;11544;42.020;23.094;2023-12-20T06:22:44;97462.69;;;0.95;100.00
22755;BME280;11544;42.020;23.094;2023-12-20T06:25:11;97466.22;;;1.07;100.00
22755;BME280;11544;42.020;23.094;2023-12-20T06:27:38;97470.56;;;1.27;100.00
22755;BME280;11544;42.020;23.094;2023-12-20T06:30:05;97466.13;;;0.99;100.00
22755;BME280;11544;42.020;23.094;2023-12-20T06:32:32;97459.22;;;0.86;100.00
22755;BME280;11544;42.020;23.094;2023-12-20T06:35:01;97460.53;;;0.36;100.00
22755;BME280;11544;42.020;23.094;2023-12-20T06:37:28;97454.00;;;0.78;100.00
22755;BME280;11544;42.020;23.094;2023-12-20T06:39:55;97459.28;;;0.98;100.00
22755;BME280;11544;42.020;23.094;2023-12-20T06:42:23;97447.13;;;0.69;100.00
22755;BME280;11544;42.020;23.094;2023-12-20T06:44:50;97454.00;;;0.73;100.00
22755;BME280;11544;42.020;23.094;2023-12-20T06:47:17;97455.03;;;1.01;100.00
22755;BME280;11544;42.020;23.094;2023-12-20T06:49:44;97449.97;;;1.14;100.00
22755;BME280;11544;42.020;23.094;2023-12-20T06:52:11;97439.09;;;1.72;100.00
22755;BME280;11544;42.020;23.094;2023-12-20T06:54:38;97439.84;;;1.43;100.00
22755;BME280;11544;42.020;23.094;2023-12-20T06:57:05;97435.91;;;0.56;100.00
22755;BME280;11544;42.020;23.094;2023-12-20T06:59:32;97434.13;;;0.48;100.00
22755;BME280;11544;42.020;23.094;2023-12-20T07:02:17;97435.09;;;0.62;100.00
22755;BME280;11544;42.020;23.094;2023-12-20T07:04:45;97433.66;;;1.02;100.00
22755;BME280;11544;42.020;23.094;2023-12-20T07:07:12;97433.50;;;0.82;100.00
22755;BME280;11544;42.020;23.094;2023-12-20T07:09:40;97433.81;;;1.39;100.00
22755;BME280;11544;42.020;23.094;2023-12-20T07:12:09;97414.06;;;1.21;100.00
22755;BME280;11544;42.020;23.094;2023-12-20T07:14:36;97415.50;;;0.78;100.00
22755;BME280;11544;42.020;23.094;2023-12-20T07:17:03;97419.78;;;0.71;100.00
22755;BME280;11544;42.020;23.094;2023-12-20T07:19:30;97420.66;;;0.79;100.00
22755;BME280;11544;42.020;23.094;2023-12-20T07:21:57;97418.13;;;0.82;100.00
22755;BME280;11544;42.020;23.094;2023-12-20T07:24:23;97405.34;;;0.89;100.00
22755;BME280;11544;42.020;23.094;2023-12-20T07:26:50;97401.91;;;0.90;100.00
22755;BME280;11544;42.020;23.094;2023-12-20T07:29:18;97394.34;;;1.17;100.00
22755;BME280;11544;42.020;23.094;2023-12-20T07:31:45;97399.22;;;0.73;100.00
22755;BME280;11544;42.020;23.094;2023-12-20T07:34:12;97400.09;;;0.75;100.00
22755;BME280;11544;42.020;23.094;2023-12-20T07:36:39;97398.44;;;0.84;100.00
22755;BME280;11544;42.020;23.094;2023-12-20T07:39:06;97402.63;;;0.64;100.00
22755;BME280;11544;42.020;23.094;2023-12-20T07:41:33;97401.81;;;0.74;100.00
22755;BME280;11544;42.020;23.094;2023-12-20T07:44:00;97401.00;;;0.80;100.00
22755;BME280;11544;42.020;23.094;2023-12-20T07:46:27;97389.72;;;0.53;100.00
22755;BME280;11544;42.020;23.094;2023-12-20T07:48:54;97402.06;;;1.25;100.00
22755;BME280;11544;42.020;23.094;2023-12-20T07:51:21;97386.63;;;1.14;100.00
22755;BME280;11544;42.020;23.094;2023-12-20T07:53:47;97397.56;;;0.78;100.00
22755;BME280;11544;42.020;23.094;2023-12-20T07:56:19;97396.66;;;0.67;100.00
22755;BME280;11544;42.020;23.094;2023-12-20T07:58:46;97381.50;;;1.14;100.00
22755;BME280;11544;42.020;23.094;2023-12-20T08:01:19;97378.81;;;0.91;100.00
22755;BME280;11544;42.020;23.094;2023-12-20T08:03:49;97386.56;;;0.97;100.00
22755;BME280;11544;42.020;23.094;2023-12-20T08:06:16;97378.97;;;1.19;100.00
22755;BME280;11544;42.020;23.094;2023-12-20T08:08:44;97379.00;;;1.31;100.00
22755;BME280;11544;42.020;23.094;2023-12-20T08:11:20;97389.03;;;0.80;100.00
22755;BME280;11544;42.020;23.094;2023-12-20T08:13:47;97386.44;;;0.76;100.00
22755;BME280;11544;42.020;23.094;2023-12-20T08:16:14;97368.78;;;1.53;100.00
22755;BME280;11544;42.020;23.094;2023-12-20T08:18:42;97375.34;;;0.78;100.00
22755;BME280;11544;42.020;23.094;2023-12-20T08:21:09;97371.13;;;0.91;100.00
22755;BME280;11544;42.020;23.094;2023-12-20T08:23:36;97373.81;;;1.22;100.00
22755;BME280;11544;42.020;23.094;2023-12-20T08:26:07;97372.00;;;0.96;100.00
22755;BME280;11544;42.020;23.094;2023-12-20T08:28:34;97377.13;;;0.96;100.00
22755;BME280;11544;42.020;23.094;2023-12-20T08:31:03;97372.19;;;1.38;100.00
22755;BME280;11544;42.020;23.094;2023-12-20T08:33:30;97368.81;;;1.59;100.00
22755;BME280;11544;42.020;23.094;2023-12-20T08:35:57;97369.50;;;1.13;100.00
22755;BME280;11544;42.020;23.094;2023-12-20T08:38:24;97356.69;;;1.19;100.00
22755;BME280;11544;42.020;23.094;2023-12-20T08:40:51;97360.06;;;1.04;100.00
22755;BME280;11544;42.020;23.094;2023-12-20T08:43:18;97354.81;;;0.84;100.00
22755;BME280;11544;42.020;23.094;2023-12-20T08:45:45;97346.50;;;1.38;100.00
22755;BME280;11544;42.020;23.094;2023-12-20T08:48:12;97338.81;;;1.50;100.00
22755;BME280;11544;42.020;23.094;2023-12-20T08:50:39;97345.53;;;1.07;100.00
22755;BME280;11544;42.020;23.094;2023-12-20T08:53:06;97337.72;;;0.83;100.00
22755;BME280;11544;42.020;23.094;2023-12-20T08:55:33;97337.88;;;1.22;100.00
22755;BME280;11544;42.020;23.094;2023-12-20T08:58:00;97316.47;;;1.24;100.00
22755;BME280;11544;42.020;23.094;2023-12-20T09:00:27;97317.44;;;1.68;100.00
22755;BME280;11544;42.020;23.094;2023-12-20T09:02:54;97308.91;;;1.80;100.00
22755;BME280;11544;42.020;23.094;2023-12-20T09:05:21;97311.38;;;1.35;100.00
22755;BME280;11544;42.020;23.094;2023-12-20T09:07:49;97307.97;;;1.53;100.00
22755;BME280;11544;42.020;23.094;2023-12-20T09:10:16;97301.16;;;1.86;100.00
22755;BME280;11544;42.020;23.094;2023-12-20T09:12:50;97302.03;;;1.88;100.00
22755;BME280;11544;42.020;23.094;2023-12-20T09:15:17;97301.09;;;1.41;100.00
22755;BME280;11544;42.020;23.094;2023-12-20T09:17:44;97296.84;;;1.56;100.00
22755;BME280;11544;42.020;23.094;2023-12-20T09:20:11;97300.28;;;1.58;100.00
22755;BME280;11544;42.020;23.094;2023-12-20T09:22:40;97279.69;;;1.25;100.00
22755;BME280;11544;42.020;23.094;2023-12-20T09:25:09;97282.16;;;0.90;100.00
22755;BME280;11544;42.020;23.094;2023-12-20T09:27:37;97276.19;;;1.05;100.00
22755;BME280;11544;42.020;23.094;2023-12-20T09:30:04;97265.09;;;1.17;100.00
22755;BME280;11544;42.020;23.094;2023-12-20T09:32:32;97257.44;;;2.07;100.00
22755;BME280;11544;42.020;23.094;2023-12-20T09:34:59;97250.56;;;2.39;100.00
22755;BME280;11544;42.020;23.094;2023-12-20T09:37:27;97245.47;;;1.80;100.00
22755;BME280;11544;42.020;23.094;2023-12-20T09:39:54;97248.81;;;1.13;100.00
22755;BME280;11544;42.020;23.094;2023-12-20T09:42:27;97250.50;;;1.00;100.00
22755;BME280;11544;42.020;23.094;2023-12-20T09:44:57;97237.72;;;1.22;100.00
22755;BME280;11544;42.020;23.094;2023-12-20T09:47:26;97225.75;;;1.24;100.00
22755;BME280;11544;42.020;23.094;2023-12-20T09:49:54;97230.81;;;1.01;100.00
22755;BME280;11544;42.020;23.094;2023-12-20T09:52:22;97218.91;;;1.38;100.00
22755;BME280;11544;42.020;23.094;2023-12-20T09:54:52;97215.44;;;1.15;100.00
22755;BME280;11544;42.020;23.094;2023-12-20T09:57:20;97204.34;;;1.36;100.00
22755;BME280;11544;42.020;23.094;2023-12-20T09:59:47;97201.78;;;1.80;100.00
22755;BME280;11544;42.020;23.094;2023-12-20T10:02:14;97185.53;;;1.47;100.00
22755;BME280;11544;42.020;23.094;2023-12-20T10:04:47;97178.66;;;1.20;100.00
22755;BME280;11544;42.020;23.094;2023-12-20T10:07:17;97173.53;;;1.45;100.00
22755;BME280;11544;42.020;23.094;2023-12-20T10:09:44;97174.38;;;1.16;100.00
22755;BME280;11544;42.020;23.094;2023-12-20T10:12:11;97167.53;;;1.32;100.00
22755;BME280;11544;42.020;23.094;2023-12-20T10:14:39;97153.84;;;1.50;100.00
22755;BME280;11544;42.020;23.094;2023-12-20T10:17:06;97155.53;;;1.80;100.00
22755;BME280;11544;42.020;23.094;2023-12-20T10:19:33;97143.44;;;2.13;100.00
22755;BME280;11544;42.020;23.094;2023-12-20T10:22:00;97143.53;;;1.67;100.00
22755;BME280;11544;42.020;23.094;2023-12-20T10:24:28;97133.19;;;1.93;100.00
22755;BME280;11544;42.020;23.094;2023-12-20T10:27:03;97126.44;;;1.52;100.00
22755;BME280;11544;42.020;23.094;2023-12-20T10:29:38;97117.63;;;2.33;100.00
22755;BME280;11544;42.020;23.094;2023-12-20T10:32:25;97104.91;;;1.99;100.00
22755;BME280;11544;42.020;23.094;2023-12-20T10:34:54;97100.59;;;2.07;100.00
22755;BME280;11544;42.020;23.094;2023-12-20T10:37:21;97105.91;;;1.49;100.00
22755;BME280;11544;42.020;23.094;2023-12-20T10:39:53;97102.31;;;2.07;100.00
22755;BME280;11544;42.020;23.094;2023-12-20T10:42:26;97087.56;;;2.43;100.00
22755;BME280;11544;42.020;23.094;2023-12-20T10:44:53;97081.78;;;1.93;100.00
22755;BME280;11544;42.020;23.094;2023-12-20T10:47:20;97075.78;;;1.97;100.00
22755;BME280;11544;42.020;23.094;2023-12-20T10:49:47;97062.84;;;2.20;100.00
22755;BME280;11544;42.020;23.094;2023-12-20T10:52:16;97055.94;;;2.24;100.00
22755;BME280;11544;42.020;23.094;2023-12-20T10:54:44;97063.53;;;2.53;100.00
22755;BME280;11544;42.020;23.094;2023-12-20T10:57:11;97049.13;;;2.17;100.00
22755;BME280;11544;42.020;23.094;2023-12-20T10:59:39;97054.06;;;2.53;100.00
22755;BME280;11544;42.020;23.094;2023-12-20T11:02:06;97044.59;;;2.60;100.00
22755;BME280;11544;42.020;23.094;2023-12-20T11:05:03;97038.66;;;2.50;100.00
22755;BME280;11544;42.020;23.094;2023-12-20T11:07:36;97040.78;;;1.61;100.00
22755;BME280;11544;42.020;23.094;2023-12-20T11:10:21;97031.97;;;2.12;100.00
22755;BME280;11544;42.020;23.094;2023-12-20T11:12:54;97032.75;;;2.31;100.00
22755;BME280;11544;42.020;23.094;2023-12-20T11:15:24;97031.13;;;2.12;100.00
22755;BME280;11544;42.020;23.094;2023-12-20T11:17:58;97020.84;;;2.14;100.00
22755;BME280;11544;42.020;23.094;2023-12-20T11:20:37;97013.19;;;2.03;100.00
22755;BME280;11544;42.020;23.094;2023-12-20T11:23:04;97016.09;;;2.83;100.00
22755;BME280;11544;42.020;23.094;2023-12-20T11:26:03;97006.16;;;2.39;100.00
22755;BME280;11544;42.020;23.094;2023-12-20T11:28:30;97010.38;;;2.46;100.00
22755;BME280;11544;42.020;23.094;2023-12-20T11:30:58;97001.56;;;2.79;100.00
22755;BME280;11544;42.020;23.094;2023-12-20T11:33:30;96996.56;;;2.62;100.00
22755;BME280;11544;42.020;23.094;2023-12-20T11:35:59;96994.03;;;2.53;100.00
22755;BME280;11544;42.020;23.094;2023-12-20T11:38:26;96987.28;;;2.33;100.00
22755;BME280;11544;42.020;23.094;2023-12-20T11:40:54;96985.19;;;2.85;100.00
22755;BME280;11544;42.020;23.094;2023-12-20T11:43:32;96981.97;;;2.63;100.00
22755;BME280;11544;42.020;23.094;2023-12-20T11:46:10;96978.84;;;2.10;100.00
22755;BME280;11544;42.020;23.094;2023-12-20T11:48:38;96975.13;;;2.57;100.00
22755;BME280;11544;42.020;23.094;2023-12-20T11:51:12;96970.25;;;2.12;100.00
22755;BME280;11544;42.020;23.094;2023-12-20T11:53:40;96966.94;;;1.97;100.00
22755;BME280;11544;42.020;23.094;2023-12-20T11:56:09;96961.72;;;2.10;100.00
22755;BME280;11544;42.020;23.094;2023-12-20T11:58:36;96956.19;;;2.64;100.00
22755;BME280;11544;42.020;23.094;2023-12-20T12:01:04;96950.16;;;2.68;100.00
22755;BME280;11544;42.020;23.094;2023-12-20T12:03:34;96946.84;;;2.54;100.00
22755;BME280;11544;42.020;23.094;2023-12-20T12:06:02;96937.16;;;2.82;100.00
22755;BME280;11544;42.020;23.094;2023-12-20T12:08:32;96938.84;;;2.86;100.00
22755;BME280;11544;42.020;23.094;2023-12-20T12:10:59;96928.94;;;2.42;100.00
22755;BME280;11544;42.020;23.094;2023-12-20T12:13:26;96927.22;;;2.41;100.00
22755;BME280;11544;42.020;23.094;2023-12-20T12:15:54;96935.88;;;2.32;100.00
22755;BME280;11544;42.020;23.094;2023-12-20T12:18:21;96924.59;;;2.48;100.00
22755;BME280;11544;42.020;23.094;2023-12-20T12:20:49;96930.94;;;1.98;100.00
22755;BME280;11544;42.020;23.094;2023-12-20T12:23:23;96926.38;;;2.40;100.00
22755;BME280;11544;42.020;23.094;2023-12-20T12:25:52;96922.31;;;2.07;100.00
22755;BME280;11544;42.020;23.094;2023-12-20T12:28:26;96908.13;;;2.69;100.00
22755;BME280;11544;42.020;23.094;2023-12-20T12:30:59;96904.59;;;2.78;100.00
22755;BME280;11544;42.020;23.094;2023-12-20T12:33:26;96906.97;;;1.96;100.00
22755;BME280;11544;42.020;23.094;2023-12-20T12:35:54;96903.16;;;2.45;100.00
22755;BME280;11544;42.020;23.094;2023-12-20T12:38:22;96905.66;;;2.56;100.00
22755;BME280;11544;42.020;23.094;2023-12-20T12:40:50;96896.22;;;2.58;100.00
22755;BME280;11544;42.020;23.094;2023-12-20T12:43:20;96885.03;;;2.60;100.00
22755;BME280;11544;42.020;23.094;2023-12-20T12:45:47;96883.53;;;2.33;100.00
22755;BME280;11544;42.020;23.094;2023-12-20T12:48:14;96887.91;;;2.25;100.00
22755;BME280;11544;42.020;23.094;2023-12-20T12:50:41;96886.22;;;2.21;100.00
22755;BME280;11544;42.020;23.094;2023-12-20T12:53:08;96878.69;;;1.93;100.00
22755;BME280;11544;42.020;23.094;2023-12-20T12:55:35;96878.63;;;2.01;100.00